sensor_id;sensor_type;location;lat;lon;timestamp;pressure;altitude;pressure_sealevel;temperature;humidity
56402;BME280;42299;35.160;26.100;2023-07-29T00:06:28;100622.78;;;25.04;61.51
56402;BME280;42299;35.160;26.100;2023-07-29T00:16:51;100627.72;;;24.94;60.05
56402;BME280;42299;35.160;26.100;2023-07-29T00:27:16;100596.78;;;24.81;58.01
56402;BME280;42299;35.160;26.100;2023-07-29T00:37:39;100609.25;;;24.65;57.16
56402;BME280;42299;35.160;26.100;2023-07-29T00:48:03;100599.53;;;24.61;56.45
56402;BME280;42299;35.160;26.100;2023-07-29T00:58:27;100600.53;;;24.58;56.83
56402;BME280;42299;35.160;26.100;2023-07-29T01:08:57;100584.56;;;24.54;58.34
56402;BME280;42299;35.160;26.100;2023-07-29T01:19:41;100588.38;;;24.48;58.91
56402;BME280;42299;35.160;26.100;2023-07-29T01:30:07;100582.66;;;24.56;57.72
56402;BME280;42299;35.160;26.100;2023-07-29T01:40:31;100574.25;;;24.62;57.88
56402;BME280;42299;35.160;26.100;2023-07-29T01:50:57;100572.44;;;24.62;59.84
56402;BME280;42299;35.160;26.100;2023-07-29T02:01:00;100562.69;;;24.60;63.32
56402;BME280;42299;35.160;26.100;2023-07-29T02:11:24;100565.38;;;24.60;69.77
56402;BME280;42299;35.160;26.100;2023-07-29T02:21:49;100558.94;;;24.62;77.63
56402;BME280;42299;35.160;26.100;2023-07-29T02:32:13;100560.47;;;24.68;80.58
56402;BME280;42299;35.160;26.100;2023-07-29T02:42:36;100553.66;;;24.80;81.15
56402;BME280;42299;35.160;26.100;2023-07-29T02:53:00;100549.81;;;24.85;83.95
56402;BME280;42299;35.160;26.100;2023-07-29T03:03:23;100553.72;;;24.98;96.46
56402;BME280;42299;35.160;26.100;2023-07-29T03:13:47;100544.50;;;25.02;100.00
56402;BME280;42299;35.160;26.100;2023-07-29T03:24:10;100548.16;;;25.01;100.00
56402;BME280;42299;35.160;26.100;2023-07-29T03:34:34;100548.16;;;25.01;100.00
56402;BME280;42299;35.160;26.100;2023-07-29T03:44:57;100547.19;;;25.02;100.00
56402;BME280;42299;35.160;26.100;2023-07-29T03:55:21;100565.81;;;25.27;100.00
56402;BME280;42299;35.160;26.100;2023-07-29T04:05:44;100572.75;;;25.70;100.00
56402;BME280;42299;35.160;26.100;2023-07-29T04:16:09;100574.81;;;26.18;100.00
56402;BME280;42299;35.160;26.100;2023-07-29T04:26:31;100579.13;;;26.73;98.40
56402;BME280;42299;35.160;26.100;2023-07-29T04:36:55;100580.66;;;27.27;95.04
56402;BME280;42299;35.160;26.100;2023-07-29T04:47:18;100585.56;;;27.83;92.16
56402;BME280;42299;35.160;26.100;2023-07-29T04:57:22;100581.06;;;28.43;89.82
56402;BME280;42299;35.160;26.100;2023-07-29T05:07:45;100601.16;;;28.99;87.42
56402;BME280;42299;35.160;26.100;2023-07-29T05:18:09;100614.53;;;29.59;87.48
56402;BME280;42299;35.160;26.100;2023-07-29T05:28:31;100621.69;;;30.01;89.59
56402;BME280;42299;35.160;26.100;2023-07-29T05:38:56;100619.16;;;30.52;89.35
56402;BME280;42299;35.160;26.100;2023-07-29T05:48:58;100637.31;;;31.16;87.64
56402;BME280;42299;35.160;26.100;2023-07-29T05:59:23;100627.88;;;32.18;80.13
56402;BME280;42299;35.160;26.100;2023-07-29T06:09:48;100629.03;;;32.62;73.24
56402;BME280;42299;35.160;26.100;2023-07-29T06:20:13;100642.47;;;33.22;71.37
56402;BME280;42299;35.160;26.100;2023-07-29T06:30:36;100637.25;;;33.75;66.88
56402;BME280;42299;35.160;26.100;2023-07-29T06:41:00;100631.69;;;34.08;60.30
56402;BME280;42299;35.160;26.100;2023-07-29T06:51:23;100622.03;;;33.93;58.33
56402;BME280;42299;35.160;26.100;2023-07-29T07:01:47;100622.63;;;33.96;56.27
56402;BME280;42299;35.160;26.100;2023-07-29T07:12:09;100626.41;;;34.27;58.21
56402;BME280;42299;35.160;26.100;2023-07-29T07:22:34;100633.91;;;34.14;57.01
56402;BME280;42299;35.160;26.100;2023-07-29T07:32:57;100643.88;;;34.47;57.30
56402;BME280;42299;35.160;26.100;2023-07-29T07:43:22;100639.84;;;35.04;56.17
56402;BME280;42299;35.160;26.100;2023-07-29T07:53:44;100647.41;;;35.11;56.15
56402;BME280;42299;35.160;26.100;2023-07-29T08:04:08;100648.91;;;35.55;56.35
56402;BME280;42299;35.160;26.100;2023-07-29T08:14:31;100644.28;;;35.56;56.78
56402;BME280;42299;35.160;26.100;2023-07-29T08:24:44;100648.13;;;35.74;54.80
56402;BME280;42299;35.160;26.100;2023-07-29T08:35:06;100654.56;;;35.94;53.30
56402;BME280;42299;35.160;26.100;2023-07-29T08:45:34;100641.84;;;36.12;49.13
56402;BME280;42299;35.160;26.100;2023-07-29T08:55:37;100636.75;;;35.58;51.04
56402;BME280;42299;35.160;26.100;2023-07-29T09:06:03;100638.69;;;35.67;48.00
56402;BME280;42299;35.160;26.100;2023-07-29T09:16:26;100619.84;;;35.53;42.42
56402;BME280;42299;35.160;26.100;2023-07-29T09:26:51;100611.72;;;35.91;39.46
56402;BME280;42299;35.160;26.100;2023-07-29T09:37:18;100618.41;;;36.56;38.31
56402;BME280;42299;35.160;26.100;2023-07-29T09:47:46;100614.34;;;36.60;38.94
56402;BME280;42299;35.160;26.100;2023-07-29T09:58:09;100606.50;;;36.94;38.61
56402;BME280;42299;35.160;26.100;2023-07-29T10:08:33;100606.41;;;37.23;36.90
56402;BME280;42299;35.160;26.100;2023-07-29T10:18:59;100594.69;;;37.21;36.54
56402;BME280;42299;35.160;26.100;2023-07-29T10:29:24;100584.69;;;36.73;37.10
56402;BME280;42299;35.160;26.100;2023-07-29T10:39:52;100587.47;;;36.35;33.29
56402;BME280;42299;35.160;26.100;2023-07-29T10:50:21;100591.78;;;36.66;29.42
56402;BME280;42299;35.160;26.100;2023-07-29T11:00:41;100596.34;;;36.95;27.42
56402;BME280;42299;35.160;26.100;2023-07-29T11:11:04;100598.59;;;37.09;27.74
56402;BME280;42299;35.160;26.100;2023-07-29T11:21:28;100597.44;;;37.21;28.94
56402;BME280;42299;35.160;26.100;2023-07-29T11:31:53;100587.03;;;37.05;28.52
56402;BME280;42299;35.160;26.100;2023-07-29T11:42:16;100575.91;;;36.97;27.57
56402;BME280;42299;35.160;26.100;2023-07-29T11:52:41;100571.44;;;36.87;26.82
56402;BME280;42299;35.160;26.100;2023-07-29T12:03:04;100565.28;;;36.75;27.87
56402;BME280;42299;35.160;26.100;2023-07-29T12:13:31;100572.09;;;36.32;29.15
56402;BME280;42299;35.160;26.100;2023-07-29T12:23:53;100576.31;;;36.27;30.91
56402;BME280;42299;35.160;26.100;2023-07-29T12:34:21;100561.09;;;36.04;31.25
56402;BME280;42299;35.160;26.100;2023-07-29T12:44:43;100552.00;;;36.03;31.13
56402;BME280;42299;35.160;26.100;2023-07-29T12:55:08;100534.91;;;35.90;31.47
56402;BME280;42299;35.160;26.100;2023-07-29T13:05:36;100537.94;;;35.97;32.45
56402;BME280;42299;35.160;26.100;2023-07-29T13:16:02;100526.78;;;35.79;32.94
56402;BME280;42299;35.160;26.100;2023-07-29T13:26:07;100538.47;;;35.62;32.80
56402;BME280;42299;35.160;26.100;2023-07-29T13:36:37;100534.91;;;35.21;33.55
56402;BME280;42299;35.160;26.100;2023-07-29T13:46:59;100533.09;;;35.10;33.98
56402;BME280;42299;35.160;26.100;2023-07-29T13:57:24;100525.81;;;35.00;34.33
56402;BME280;42299;35.160;26.100;2023-07-29T14:07:46;100515.97;;;34.67;34.94
56402;BME280;42299;35.160;26.100;2023-07-29T14:18:11;100502.84;;;35.01;35.38
56402;BME280;42299;35.160;26.100;2023-07-29T14:28:52;100504.34;;;34.74;37.60
56402;BME280;42299;35.160;26.100;2023-07-29T14:39:26;100498.81;;;34.44;38.42
56402;BME280;42299;35.160;26.100;2023-07-29T14:49:32;100500.66;;;34.64;37.51
56402;BME280;42299;35.160;26.100;2023-07-29T14:59:56;100488.91;;;34.11;38.35
56402;BME280;42299;35.160;26.100;2023-07-29T15:10:19;100483.06;;;33.84;38.52
56402;BME280;42299;35.160;26.100;2023-07-29T15:20:43;100475.66;;;32.98;38.80
56402;BME280;42299;35.160;26.100;2023-07-29T15:31:06;100483.34;;;32.37;39.52
56402;BME280;42299;35.160;26.100;2023-07-29T15:41:32;100482.41;;;31.80;41.14
56402;BME280;42299;35.160;26.100;2023-07-29T15:51:55;100479.44;;;31.35;41.66
56402;BME280;42299;35.160;26.100;2023-07-29T16:02:19;100486.44;;;30.90;42.51
56402;BME280;42299;35.160;26.100;2023-07-29T16:12:41;100495.41;;;30.54;43.36
56402;BME280;42299;35.160;26.100;2023-07-29T16:23:05;100493.31;;;30.32;45.75
56402;BME280;42299;35.160;26.100;2023-07-29T16:33:28;100502.22;;;30.09;50.13
56402;BME280;42299;35.160;26.100;2023-07-29T16:43:53;100504.34;;;29.91;53.35
56402;BME280;42299;35.160;26.100;2023-07-29T16:54:16;100515.81;;;29.69;59.00
56402;BME280;42299;35.160;26.100;2023-07-29T17:04:41;100530.19;;;29.45;63.04
56402;BME280;42299;35.160;26.100;2023-07-29T17:15:04;100534.00;;;29.28;66.32
56402;BME280;42299;35.160;26.100;2023-07-29T17:25:30;100529.19;;;29.05;65.59
56402;BME280;42299;35.160;26.100;2023-07-29T17:35:53;100529.69;;;28.83;61.87
56402;BME280;42299;35.160;26.100;2023-07-29T17:46:18;100527.13;;;28.66;60.80
56402;BME280;42299;35.160;26.100;2023-07-29T17:56:40;100532.66;;;28.50;60.75
56402;BME280;42299;35.160;26.100;2023-07-29T18:07:05;100537.78;;;28.40;61.92
56402;BME280;42299;35.160;26.100;2023-07-29T18:17:27;100537.56;;;28.29;62.34
56402;BME280;42299;35.160;26.100;2023-07-29T18:27:51;100559.94;;;28.19;62.36
56402;BME280;42299;35.160;26.100;2023-07-29T18:38:14;100555.75;;;28.13;64.47
56402;BME280;42299;35.160;26.100;2023-07-29T18:48:38;100556.91;;;28.09;66.31
56402;BME280;42299;35.160;26.100;2023-07-29T18:59:01;100553.78;;;28.01;66.70
56402;BME280;42299;35.160;26.100;2023-07-29T19:09:25;100551.16;;;27.84;67.91
56402;BME280;42299;35.160;26.100;2023-07-29T19:19:48;100546.09;;;27.77;68.55
56402;BME280;42299;35.160;26.100;2023-07-29T19:30:13;100554.00;;;27.66;71.12
56402;BME280;42299;35.160;26.100;2023-07-29T19:40:36;100551.50;;;27.63;72.74
56402;BME280;42299;35.160;26.100;2023-07-29T19:51:00;100539.06;;;27.59;74.56
56402;BME280;42299;35.160;26.100;2023-07-29T20:01:23;100536.41;;;27.58;74.16
56402;BME280;42299;35.160;26.100;2023-07-29T20:11:47;100529.69;;;27.49;76.28
56402;BME280;42299;35.160;26.100;2023-07-29T20:22:10;100522.88;;;27.42;81.41
56402;BME280;42299;35.160;26.100;2023-07-29T20:32:34;100524.09;;;27.36;83.17
56402;BME280;42299;35.160;26.100;2023-07-29T20:42:37;100523.56;;;27.30;84.84
56402;BME280;42299;35.160;26.100;2023-07-29T20:53:02;100539.19;;;27.25;83.61
56402;BME280;42299;35.160;26.100;2023-07-29T21:03:25;100529.25;;;27.25;79.58
56402;BME280;42299;35.160;26.100;2023-07-29T21:13:49;100516.47;;;27.27;78.80
56402;BME280;42299;35.160;26.100;2023-07-29T21:23:53;100537.66;;;27.21;79.42
56402;BME280;42299;35.160;26.100;2023-07-29T21:34:18;100537.13;;;27.14;79.52
56402;BME280;42299;35.160;26.100;2023-07-29T21:44:42;100533.94;;;27.06;76.72
56402;BME280;42299;35.160;26.100;2023-07-29T21:55:07;100527.84;;;27.03;75.44
56402;BME280;42299;35.160;26.100;2023-07-29T22:05:30;100518.22;;;26.97;77.68
56402;BME280;42299;35.160;26.100;2023-07-29T22:15:54;100510.53;;;26.89;80.17
56402;BME280;42299;35.160;26.100;2023-07-29T22:26:17;100510.84;;;26.83;82.07
56402;BME280;42299;35.160;26.100;2023-07-29T22:36:41;100495.53;;;26.82;85.57
56402;BME280;42299;35.160;26.100;2023-07-29T22:47:04;100490.38;;;26.78;88.96
56402;BME280;42299;35.160;26.100;2023-07-29T22:57:29;100477.00;;;26.75;86.45
56402;BME280;42299;35.160;26.100;2023-07-29T23:07:52;100470.09;;;26.69;84.06
56402;BME280;42299;35.160;26.100;2023-07-29T23:18:16;100458.38;;;26.69;86.81
56402;BME280;42299;35.160;26.100;2023-07-29T23:28:39;100455.75;;;26.67;90.68
56402;BME280;42299;35.160;26.100;2023-07-29T23:39:03;100445.25;;;26.61;93.70
56402;BME280;42299;35.160;26.100;2023-07-29T23:49:27;100437.56;;;26.53;96.45
56402;BME280;42299;35.160;26.100;2023-07-29T23:59:51;100435.38;;;26.44;95.87
